Station: Kitzingen Usa \ Af , ICAO: ETIN, Synop: Synop: 10669,
Koordinaten: 4945'00''N 01012'00''E, Hoehe: 210m, Entfernung: 27.87km


Station: Giebelstadt, ICAO: ETEU, Synop: Synop: 10653,
Koordinaten: 4939'00''N 00958'00''E, Hoehe: 298m, Entfernung: 47.58km


Station: Illesheim, ICAO: ETIK, Synop: Synop: 10752,
Koordinaten: 4928'00''N 01023'00''E, Hoehe: 325m, Entfernung: 52.60km
2018/04/20 17:56
ETIK 201756Z 25001KT 9999 SCT220 25/09 A3017 RMK AO2A SLP210 WND DATA ESTMD ALSTG/SLP ESTMD


Station: ILLESHEIM (USAF), ICAO: EDIK, Synop: Synop: 10752,
Koordinaten: 49 28 N 010 23 E, Hoehe: 325m, Entfernung: 52.60km


Station: Nuernberg, ICAO: EDDN, Synop: Synop: 10763,
Koordinaten: 4930'00''N 01103'00''E, Hoehe: 318m, Entfernung: 64.58km
2018/04/22 13:50
EDDN 221350Z 26013KT CAVOK 28/07 Q1014 NOSIG


Station: Niederstetten, ICAO: ETHN, Synop: Synop: 10743,
Koordinaten: 4924'00''N 00958'00''E, Hoehe: 468m, Entfernung: 69.41km
2018/04/22 13:20
ETHN 221320Z 24009KT 9999 FEW060TCU BKN300 25/08 Q1015 BLU+


mehr Wetter
WetterInfo - adds.pl 2.6.003 DL3EL © 2004-2017 [374241]